createdAt,value
2022-10-11T00:01:52.827Z,4.93
2022-10-11T00:06:55.721Z,4.80
2022-10-11T00:11:58.607Z,4.90
2022-10-11T00:17:02.722Z,4.50
2022-10-11T00:22:05.540Z,3.22
2022-10-11T00:27:08.407Z,4.22
2022-10-11T00:32:12.737Z,4.75
2022-10-11T00:37:15.442Z,2.97
2022-10-11T00:42:18.601Z,3.33
2022-10-11T00:47:24.475Z,3.60
2022-10-11T00:52:31.669Z,2.55
2022-10-11T00:57:36.495Z,3.53
2022-10-11T01:02:41.305Z,3.35
2022-10-11T01:07:44.408Z,2.60
2022-10-11T01:12:52.339Z,4.78
2022-10-11T01:18:00.890Z,3.92
2022-10-11T01:23:45.043Z,4.10
2022-10-11T01:28:51.840Z,3.03
2022-10-11T01:33:57.871Z,3.53
2022-10-11T01:39:04.862Z,3.35
2022-10-11T01:44:08.989Z,3.30
2022-10-11T01:49:13.256Z,3.95
2022-10-11T01:54:44.052Z,4.72
2022-10-11T01:59:59.559Z,3.35
2022-10-11T02:05:09.872Z,2.25
2022-10-11T02:10:16.026Z,3.38
2022-10-11T02:15:20.363Z,3.53
2022-10-11T02:20:26.482Z,3.95
2022-10-11T02:25:32.100Z,3.58
2022-10-11T02:30:35.622Z,4.00
2022-10-11T02:35:43.083Z,5.53
2022-10-11T02:40:48.438Z,3.13
2022-10-11T02:45:53.776Z,4.07
2022-10-11T02:50:58.575Z,3.92
2022-10-11T02:56:01.474Z,6.10
2022-10-11T03:01:04.690Z,4.32
2022-10-11T03:06:09.340Z,5.82
2022-10-11T03:11:13.298Z,6.68
2022-10-11T03:16:16.076Z,6.72
2022-10-11T03:21:20.191Z,3.38
2022-10-11T03:26:22.943Z,5.28
2022-10-11T03:31:25.730Z,3.75
2022-10-11T03:36:29.871Z,5.63
2022-10-11T03:41:32.725Z,3.88
2022-10-11T03:46:35.421Z,3.88
2022-10-11T03:51:39.582Z,3.25
2022-10-11T03:56:42.264Z,4.03
2022-10-11T04:01:45.114Z,4.63
2022-10-11T04:06:49.313Z,4.22
2022-10-11T04:11:51.960Z,4.35
2022-10-11T04:16:57.371Z,3.30
2022-10-11T04:22:04.392Z,4.93
2022-10-11T04:27:07.268Z,3.78
2022-10-11T04:32:09.953Z,4.57
2022-10-11T04:37:14.046Z,5.43
2022-10-11T04:42:17.319Z,3.60
2022-10-11T04:47:19.983Z,4.65
2022-10-11T04:52:25.930Z,2.53
2022-10-11T04:57:28.800Z,4.07
2022-10-11T05:02:31.670Z,3.70
2022-10-11T05:07:35.909Z,3.92
2022-10-11T05:12:38.794Z,3.55
2022-10-11T05:17:41.515Z,3.58
2022-10-11T05:22:45.635Z,6.65
2022-10-11T05:27:48.683Z,4.72
2022-10-11T05:32:51.363Z,4.30
2022-10-11T05:37:55.545Z,3.13
2022-10-11T05:42:58.312Z,5.10
2022-10-11T05:48:00.961Z,3.50
2022-10-11T05:53:05.445Z,3.13
2022-10-11T05:58:09.012Z,3.60
2022-10-11T06:03:13.210Z,4.05
2022-10-11T06:08:17.379Z,4.07
2022-10-11T06:13:20.091Z,3.75
2022-10-11T06:18:22.775Z,3.50
2022-10-11T06:23:26.929Z,3.17
2022-10-11T06:28:30.479Z,3.95
2022-10-11T06:33:33.441Z,2.97
2022-10-11T06:38:42.289Z,4.43
2022-10-11T06:43:49.410Z,3.17
2022-10-11T06:48:52.399Z,2.95
2022-10-11T06:53:59.815Z,4.28
2022-10-11T06:59:03.510Z,3.15
2022-10-11T07:04:06.302Z,3.95
2022-10-11T07:09:10.821Z,3.88
2022-10-11T07:14:13.613Z,4.22
2022-10-11T07:19:16.284Z,3.33
2022-10-11T07:24:20.343Z,3.80
2022-10-11T07:29:23.122Z,3.45
2022-10-11T07:34:25.810Z,4.65
2022-10-11T07:39:30.954Z,2.53
2022-10-11T07:44:34.217Z,4.20
2022-10-11T07:49:36.954Z,2.63
2022-10-11T07:54:41.113Z,3.40
2022-10-11T07:59:49.313Z,3.00
2022-10-11T08:04:52.790Z,3.28
2022-10-11T08:09:57.174Z,2.70
2022-10-11T08:14:59.929Z,3.35
2022-10-11T08:20:02.628Z,3.65
2022-10-11T08:25:07.615Z,3.25
2022-10-11T08:30:11.907Z,2.60
2022-10-11T08:35:14.689Z,3.13
2022-10-11T08:40:20.930Z,2.70
2022-10-11T08:45:30.550Z,3.25
2022-10-11T08:50:33.292Z,3.13
2022-10-11T08:55:43.926Z,4.13
2022-10-11T09:00:47.476Z,3.33
2022-10-11T09:06:03.687Z,2.83
2022-10-11T09:11:12.286Z,3.05
2022-10-11T09:16:23.927Z,3.10
2022-10-11T09:21:33.453Z,4.72
2022-10-11T09:26:42.832Z,3.92
2022-10-11T09:31:48.577Z,3.97
2022-10-11T09:36:55.984Z,4.13
2022-10-11T09:42:02.583Z,3.75
2022-10-11T09:47:06.222Z,6.13
2022-10-11T09:52:15.901Z,3.83
2022-10-11T09:57:23.196Z,4.85
2022-10-11T10:02:26.139Z,3.58
2022-10-11T10:07:29.942Z,4.45
2022-10-11T10:12:34.129Z,18.27
2022-10-11T10:17:37.309Z,66.13
2022-10-11T10:22:40.598Z,74.18
2022-10-11T10:27:58.289Z,70.07
2022-10-11T10:33:03.295Z,60.85
2022-10-11T10:38:13.998Z,56.33
2022-10-11T10:43:19.947Z,51.22
2022-10-11T10:48:27.158Z,44.17
2022-10-11T10:53:34.140Z,40.78
2022-10-11T10:58:46.836Z,44.85
2022-10-11T11:03:56.303Z,36.67
2022-10-11T11:09:07.203Z,38.50
2022-10-11T11:14:19.786Z,32.05
2022-10-11T11:19:31.302Z,34.67
2022-10-11T11:24:41.111Z,28.08
2022-10-11T11:29:55.238Z,29.88
2022-10-11T11:35:01.761Z,26.23
2022-10-11T11:40:07.697Z,26.85
2022-10-11T11:45:18.884Z,24.98
2022-10-11T11:50:23.795Z,20.95
2022-10-11T11:55:32.365Z,22.58
2022-10-11T12:00:52.636Z,21.55
2022-10-11T12:06:20.875Z,20.05
2022-10-11T12:11:29.497Z,16.88
2022-10-11T12:17:17.151Z,19.48
2022-10-11T12:22:38.479Z,17.88
2022-10-11T12:27:43.870Z,18.10
2022-10-11T12:32:54.412Z,14.10
2022-10-11T12:38:07.136Z,14.77
2022-10-11T12:43:12.808Z,16.55
2022-10-11T12:48:22.891Z,17.27
2022-10-11T12:53:39.243Z,15.70
2022-10-11T12:58:42.297Z,17.27
2022-10-11T13:03:50.813Z,12.55
2022-10-11T13:08:56.571Z,12.80
2022-10-11T13:14:01.093Z,17.30
2022-10-11T13:19:06.806Z,15.80
2022-10-11T13:24:13.163Z,11.18
2022-10-11T13:29:17.522Z,12.77
2022-10-11T13:34:23.580Z,10.48
2022-10-11T13:39:31.225Z,12.93
2022-10-11T13:44:35.367Z,11.70
2022-10-11T13:49:40.157Z,12.93
2022-10-11T13:54:55.446Z,10.82
2022-10-11T13:59:58.244Z,10.95
2022-10-11T14:05:02.861Z,10.95
2022-10-11T14:10:06.917Z,10.38
2022-10-11T14:15:25.271Z,11.30
2022-10-11T14:20:38.713Z,11.85
2022-10-11T14:25:41.574Z,10.98
2022-10-11T14:30:44.392Z,10.00
2022-10-11T14:35:48.573Z,11.35
2022-10-11T14:40:51.387Z,10.60
2022-10-11T14:45:54.620Z,9.57
2022-10-11T14:51:00.467Z,10.00
2022-10-11T14:56:03.619Z,10.65
2022-10-11T15:01:06.821Z,9.75
2022-10-11T15:06:16.568Z,9.75
2022-10-11T15:11:20.739Z,9.90
2022-10-11T15:16:23.710Z,8.95
2022-10-11T15:21:29.579Z,8.45
2022-10-11T15:26:33.877Z,8.82
2022-10-11T15:31:36.795Z,9.25
2022-10-11T15:36:40.840Z,8.60
2022-10-11T15:41:43.571Z,7.68
2022-10-11T15:46:46.347Z,8.20
2022-10-11T15:51:50.424Z,8.55
2022-10-11T15:56:53.116Z,9.43
2022-10-11T16:01:55.874Z,7.70
2022-10-11T16:06:59.946Z,10.10
2022-10-11T16:12:02.656Z,9.75
2022-10-11T16:17:05.712Z,8.50
2022-10-11T16:22:09.830Z,9.13
2022-10-11T16:27:17.868Z,6.53
2022-10-11T16:32:22.109Z,8.10
2022-10-11T16:37:26.269Z,6.78
2022-10-11T16:42:29.025Z,8.40
2022-10-11T16:47:31.982Z,7.53
2022-10-11T16:52:36.091Z,6.32
2022-10-11T16:57:38.816Z,10.10
2022-10-11T17:02:41.536Z,32.05
2022-10-11T17:07:45.615Z,21.13
2022-10-11T17:12:50.264Z,21.50
2022-10-11T17:17:56.308Z,9.55
2022-10-11T17:23:01.024Z,13.98
2022-10-11T17:28:05.496Z,16.35
2022-10-11T17:33:28.125Z,11.52
2022-10-11T17:38:32.255Z,11.02
2022-10-11T17:43:35.491Z,13.73
2022-10-11T17:48:39.348Z,12.43
2022-10-11T17:53:44.056Z,17.20
2022-10-11T17:58:47.201Z,11.73
2022-10-11T18:03:52.919Z,9.52
2022-10-11T18:08:57.832Z,10.07
2022-10-11T18:14:00.627Z,8.98
2022-10-11T18:19:04.216Z,12.60
2022-10-11T18:24:11.671Z,10.10
2022-10-11T18:29:14.465Z,9.43
2022-10-11T18:34:17.272Z,13.45
2022-10-11T18:39:44.177Z,15.50
2022-10-11T18:44:47.011Z,12.68
2022-10-11T18:49:49.714Z,13.05
2022-10-11T18:54:53.815Z,9.15
2022-10-11T18:59:56.550Z,8.45
2022-10-11T19:04:59.341Z,7.03
2022-10-11T19:10:04.313Z,11.93
2022-10-11T19:15:07.642Z,10.25
2022-10-11T19:20:12.442Z,8.35
2022-10-11T19:25:17.172Z,10.35
2022-10-11T19:30:19.967Z,7.85
2022-10-11T19:35:22.633Z,8.75
2022-10-11T19:40:29.151Z,6.10
2022-10-11T19:45:36.155Z,6.43
2022-10-11T19:50:39.310Z,7.20
2022-10-11T19:55:46.438Z,10.73
2022-10-11T20:00:49.433Z,11.48
2022-10-11T20:05:52.157Z,4.47
2022-10-11T20:10:56.446Z,10.15
2022-10-11T20:16:00.094Z,8.35
2022-10-11T20:21:06.093Z,7.82
2022-10-11T20:26:12.714Z,8.32
2022-10-11T20:31:17.458Z,15.95
2022-10-11T20:36:21.411Z,40.88
2022-10-11T20:41:27.688Z,56.25
2022-10-11T20:46:32.317Z,62.78
2022-10-11T20:51:36.050Z,56.15
2022-10-11T20:56:40.515Z,51.22
2022-10-11T21:01:43.303Z,49.45
2022-10-11T21:06:46.278Z,53.85
2022-10-11T21:11:50.355Z,42.13
2022-10-11T21:16:53.044Z,45.10
2022-10-11T21:21:55.742Z,45.10
2022-10-11T21:27:00.834Z,45.65
2022-10-11T21:32:03.799Z,36.72
2022-10-11T21:37:06.473Z,36.15
2022-10-11T21:42:10.529Z,31.23
2022-10-11T21:47:13.198Z,36.60
2022-10-11T21:52:16.066Z,28.98
2022-10-11T21:57:20.078Z,31.73
2022-10-11T22:02:22.768Z,25.35
2022-10-11T22:07:25.538Z,29.23
2022-10-11T22:12:29.562Z,24.95
2022-10-11T22:17:32.212Z,23.92
2022-10-11T22:22:35.233Z,25.88
2022-10-11T22:27:39.469Z,23.83
2022-10-11T22:32:42.164Z,25.40
2022-10-11T22:37:44.991Z,22.00
2022-10-11T22:42:49.323Z,22.50
2022-10-11T22:47:52.282Z,32.88
2022-10-11T22:52:54.947Z,19.65
2022-10-11T22:57:59.022Z,19.33
2022-10-11T23:03:01.807Z,19.67
2022-10-11T23:08:04.610Z,24.95
2022-10-11T23:13:08.722Z,22.45
2022-10-11T23:18:11.410Z,19.13
2022-10-11T23:23:14.056Z,16.35
2022-10-11T23:28:18.103Z,18.27
2022-10-11T23:33:20.846Z,17.27
2022-10-11T23:38:23.594Z,17.15
2022-10-11T23:43:27.606Z,16.90
2022-10-11T23:48:30.303Z,16.17
2022-10-11T23:53:33.222Z,14.88
2022-10-11T23:58:37.474Z,13.90
